Time;durP1;ratioP1;P1;durP2;ratioP2;P2;SDS_P1;SDS_P2;PMS_P1;PMS_P2;Temp;Humidity;BMP_temperature;BMP_pressure;BME280_temperature;BME280_humidity;BME280_pressure;Samples;Min_cycle;Max_cycle;Signal;HPM_P1;HPM_P2
2023/12/01 00:01:10;;;;;;;;;39.00;29.00;;;;;-143.90;100.00;75612.59;4900444;28;102617;-73
2023/12/01 00:03:37;;;;;;;;;60.67;45.00;;;;;-143.90;100.00;75622.94;4899036;28;102365;-73
2023/12/01 00:06:04;;;;;;;;;47.67;40.67;;;;;-143.90;100.00;75610.53;4915402;28;106935;-73
2023/12/01 00:08:31;;;;;;;;;56.33;37.33;;;;;-143.90;100.00;75606.41;4895761;28;104146;-73
2023/12/01 00:10:57;;;;;;;;;57.25;40.25;;;;;-143.90;100.00;75616.72;4899515;28;103604;-73
2023/12/01 00:13:24;;;;;;;;;101.00;74.00;;;;;-143.90;100.00;75629.13;4897564;28;102154;-73
2023/12/01 00:15:51;;;;;;;;;99.00;71.00;;;;;-143.90;100.00;75631.22;4899710;28;102361;-73
2023/12/01 00:18:19;;;;;;;;;92.25;67.25;;;;;-143.90;100.00;75627.06;4898534;28;103574;-73
2023/12/01 00:20:46;;;;;;;;;86.50;60.75;;;;;-143.90;100.00;75627.06;4896853;28;102221;-73
2023/12/01 00:23:12;;;;;;;;;100.75;72.25;;;;;-143.90;100.00;75656.03;4895944;28;102480;-73
2023/12/01 00:25:39;;;;;;;;;108.00;74.25;;;;;-143.90;100.00;75664.28;4898480;28;103919;-73
2023/12/01 00:28:05;;;;;;;;;101.25;76.00;;;;;-143.90;100.00;75668.44;4897165;28;104088;-73
2023/12/01 00:30:32;;;;;;;;;110.25;83.50;;;;;-143.90;100.00;75672.56;4897694;28;102714;-73
2023/12/01 00:33:01;;;;;;;;;104.75;75.50;;;;;-143.90;100.00;75664.28;4893137;28;102233;-73
2023/12/01 00:35:28;;;;;;;;;99.25;71.25;;;;;-143.90;100.00;75643.63;4898221;28;102903;-74
2023/12/01 00:37:54;;;;;;;;;107.00;74.25;;;;;-143.90;100.00;75656.03;4896325;28;104148;-73
2023/12/01 00:40:21;;;;;;;;;103.75;76.50;;;;;-143.90;100.00;75664.28;4896035;28;102519;-74
2023/12/01 00:42:48;;;;;;;;;109.00;83.00;;;;;-143.90;100.00;75674.63;4898584;28;102502;-73
2023/12/01 00:45:15;;;;;;;;;90.75;67.00;;;;;-143.90;100.00;75656.03;4900936;28;101975;-73
2023/12/01 00:47:42;;;;;;;;;110.00;79.75;;;;;-143.90;100.00;75649.81;4897813;28;109171;-74
2023/12/01 00:50:09;;;;;;;;;100.75;68.50;;;;;-143.90;100.00;75658.09;4898163;28;102398;-73
2023/12/01 00:52:36;;;;;;;;;70.00;56.50;;;;;-143.90;100.00;75656.03;4896648;28;102308;-73
2023/12/01 00:55:03;;;;;;;;;78.00;59.25;;;;;-143.90;100.00;75651.88;4897924;28;102150;-73
2023/12/01 00:57:29;;;;;;;;;78.25;57.00;;;;;-143.90;100.00;75658.09;4896187;28;103966;-73
2023/12/01 00:59:56;;;;;;;;;74.00;54.00;;;;;-143.90;100.00;75662.22;4897437;28;102411;-73
2023/12/01 01:02:23;;;;;;;;;76.00;55.50;;;;;-143.90;100.00;75664.28;4896260;28;102998;-73
2023/12/01 01:04:49;;;;;;;;;81.50;61.75;;;;;-143.90;100.00;75674.63;4895195;28;102039;-73
2023/12/01 01:07:16;;;;;;;;;68.00;49.50;;;;;-143.90;100.00;75676.69;4897058;28;103092;-74
2023/12/01 01:09:43;;;;;;;;;63.00;43.33;;;;;-143.90;100.00;75680.84;4896421;28;102856;-73
2023/12/01 01:12:10;;;;;;;;;55.33;47.00;;;;;-143.90;100.00;75672.56;4896041;28;101986;-73
2023/12/01 01:14:36;;;;;;;;;55.67;37.67;;;;;-143.90;100.00;75668.44;4898001;28;101888;-73
2023/12/01 01:17:03;;;;;;;;;39.67;32.00;;;;;-143.90;100.00;75658.09;4898617;28;104145;-73
2023/12/01 01:19:30;;;;;;;;;78.75;64.00;;;;;-143.90;100.00;75670.50;4896575;28;102373;-73
2023/12/01 01:21:56;;;;;;;;;89.25;64.75;;;;;-143.90;100.00;75682.91;4895836;28;102342;-73
2023/12/01 01:24:23;;;;;;;;;77.00;59.00;;;;;-143.90;100.00;75684.97;4899020;28;102977;-73
2023/12/01 01:26:50;;;;;;;;;76.00;57.00;;;;;-143.90;100.00;75689.09;4896710;28;104275;-73
2023/12/01 01:29:16;;;;;;;;;71.75;54.00;;;;;-143.90;100.00;75684.97;4898239;28;102653;-73
2023/12/01 01:31:44;;;;;;;;;66.50;50.50;;;;;-143.90;100.00;75680.84;4895198;28;102067;-73
2023/12/01 01:34:11;;;;;;;;;45.00;40.67;;;;;-143.90;100.00;75678.75;4897970;28;102027;-73
2023/12/01 01:36:37;;;;;;;;;41.00;29.00;;;;;-143.90;100.00;75676.69;4894719;28;104033;-73
2023/12/01 01:39:05;;;;;;;;;48.33;35.00;;;;;-143.90;100.00;75664.28;4896210;28;102710;-73
2023/12/01 01:41:31;;;;;;;;;58.33;45.67;;;;;-143.90;100.00;75664.28;4895674;28;102449;-73
2023/12/01 01:43:58;;;;;;;;;45.00;35.00;;;;;-143.90;100.00;75662.22;4897272;28;102510;-74
2023/12/01 01:46:25;;;;;;;;;65.75;51.00;;;;;-143.90;100.00;75672.56;4890836;28;104070;-74
2023/12/01 01:48:51;;;;;;;;;71.25;52.25;;;;;-143.90;100.00;75676.69;4893725;28;102690;-73
2023/12/01 01:51:19;;;;;;;;;47.00;30.67;;;;;-143.90;100.00;75693.25;4894692;28;102141;-73
2023/12/01 01:53:46;;;;;;;;;74.00;57.00;;;;;-143.90;100.00;75701.50;4898029;28;102213;-74
2023/12/01 01:56:14;;;;;;;;;103.50;73.00;;;;;-143.90;100.00;75707.72;4893120;28;108875;-74
2023/12/01 01:58:41;;;;;;;;;98.75;70.00;;;;;-143.90;100.00;75705.66;4894521;28;102141;-73
2023/12/01 02:01:08;;;;;;;;;90.50;69.00;;;;;-143.90;100.00;75709.78;4896167;28;101987;-73
2023/12/01 02:03:35;;;;;;;;;102.50;73.00;;;;;-143.90;100.00;75718.06;4894743;28;101868;-73
2023/12/01 02:06:07;;;;;;;;;94.25;74.25;;;;;-143.90;100.00;75726.31;4893922;28;104123;-73
2023/12/01 02:08:35;;;;;;;;;104.75;71.00;;;;;-143.90;100.00;75742.88;4893687;28;102374;-73
2023/12/01 02:11:03;;;;;;;;;94.75;67.25;;;;;-143.90;100.00;75747.00;4893561;28;102824;-74
2023/12/01 02:13:30;;;;;;;;;93.75;64.75;;;;;-143.90;100.00;75747.00;4895793;28;102119;-73
2023/12/01 02:15:59;;;;;;;;;70.75;57.50;;;;;-143.90;100.00;75751.13;4896322;28;103368;-73
2023/12/01 02:18:31;;;;;;;;;65.25;47.50;;;;;-143.90;100.00;75755.28;4896954;28;102346;-73
2023/12/01 02:20:58;;;;;;;;;61.25;44.50;;;;;-143.90;100.00;75755.28;4898241;28;102892;-73
2023/12/01 02:23:26;;;;;;;;;56.50;48.25;;;;;-143.90;100.00;75751.13;4899330;28;102087;-73
2023/12/01 02:25:53;;;;;;;;;51.00;43.67;;;;;-143.90;100.00;75747.00;4897331;28;104107;-73
2023/12/01 02:28:20;;;;;;;;;70.00;52.50;;;;;-143.90;100.00;75747.00;4896140;28;102354;-72
2023/12/01 02:30:52;;;;;;;;;100.75;71.25;;;;;-143.90;100.00;75742.88;4898468;28;102097;-73
2023/12/01 02:33:20;;;;;;;;;86.50;66.50;;;;;-143.90;100.00;75749.06;4895570;28;102646;-73
2023/12/01 02:35:48;;;;;;;;;80.25;61.50;;;;;-143.90;100.00;75755.28;4900706;28;104151;-73
2023/12/01 02:38:15;;;;;;;;;97.25;67.25;;;;;-143.90;100.00;75763.53;4898585;28;102336;-73
2023/12/01 02:40:49;;;;;;;;;97.75;74.75;;;;;-143.90;100.00;75763.53;4898885;28;101960;-73
2023/12/01 02:43:19;;;;;;;;;84.75;63.00;;;;;-143.90;100.00;75767.69;4898800;28;102866;-73
2023/12/01 02:45:47;;;;;;;;;76.50;60.25;;;;;-143.90;100.00;75771.81;4896073;28;108803;-73
2023/12/01 02:48:15;;;;;;;;;73.00;55.50;;;;;-143.90;100.00;75775.94;4898312;28;102285;-73
2023/12/01 02:50:41;;;;;;;;;84.25;63.50;;;;;-143.90;100.00;75767.69;4900116;28;101943;-73
2023/12/01 02:53:08;;;;;;;;;95.00;67.50;;;;;-143.90;100.00;75759.41;4901887;28;102125;-73
2023/12/01 02:55:35;;;;;;;;;94.00;65.75;;;;;-143.90;100.00;75759.41;4899114;28;104064;-73
2023/12/01 02:58:02;;;;;;;;;83.00;62.00;;;;;-143.90;100.00;75757.34;4901512;28;102301;-73
2023/12/01 03:00:29;;;;;;;;;72.00;54.50;;;;;-143.90;100.00;75771.81;4897164;28;102511;-73
2023/12/01 03:02:56;;;;;;;;;61.33;40.67;;;;;-143.90;100.00;75763.53;4901006;28;102080;-73
2023/12/01 03:05:22;;;;;;;;;89.25;69.50;;;;;-143.90;100.00;75765.59;4899104;28;104110;-73
2023/12/01 03:07:49;;;;;;;;;92.00;66.75;;;;;-143.90;100.00;75759.41;4897318;28;102576;-72
2023/12/01 03:10:16;;;;;;;;;80.25;56.75;;;;;-143.90;100.00;75757.34;4901729;28;102194;-73
2023/12/01 03:12:44;;;;;;;;;72.25;51.00;;;;;-143.90;100.00;75759.41;4900247;28;102086;-73
2023/12/01 03:15:12;;;;;;;;;42.33;31.00;;;;;-143.90;100.00;75763.53;4897607;28;104014;-73
2023/12/01 03:17:40;;;;;;;;;64.33;48.33;;;;;-143.90;100.00;75761.47;4900706;28;102268;-73
2023/12/01 03:20:09;;;;;;;;;59.00;48.00;;;;;-143.90;100.00;75759.41;4900207;28;102074;-73
2023/12/01 03:22:38;;;;;;;;;81.00;60.25;;;;;-143.90;100.00;75771.81;4900707;28;101918;-73
2023/12/01 03:25:09;;;;;;;;;93.50;68.00;;;;;-143.90;100.00;75782.16;4895161;28;104144;-74
2023/12/01 03:27:44;;;;;;;;;98.50;70.75;;;;;-143.90;100.00;75788.34;4898899;28;102218;-73
2023/12/01 03:30:20;;;;;;;;;104.50;74.50;;;;;-143.90;100.00;75796.63;4897237;28;102032;-73
2023/12/01 03:32:51;;;;;;;;;108.50;78.50;;;;;-143.90;100.00;75798.69;4900233;28;102098;-73
2023/12/01 03:35:24;;;;;;;;;104.50;72.75;;;;;-143.90;100.00;75784.22;4895813;28;109591;-71
2023/12/01 03:37:55;;;;;;;;;87.50;64.00;;;;;-143.90;100.00;75765.59;4895412;28;103319;-73
2023/12/01 03:40:23;;;;;;;;;72.75;55.25;;;;;-143.90;100.00;75763.53;4896925;28;103135;-73
2023/12/01 03:42:51;;;;;;;;;82.75;59.50;;;;;-143.90;100.00;75761.47;4895461;28;102136;-73
2023/12/01 03:45:17;;;;;;;;;80.75;59.00;;;;;-143.90;100.00;75773.88;4899668;28;104199;-73
2023/12/01 03:47:49;;;;;;;;;89.25;64.25;;;;;-143.90;100.00;75784.22;4898128;28;102191;-73
2023/12/01 03:50:18;;;;;;;;;95.00;66.00;;;;;-143.90;100.00;75794.56;4899400;28;102091;-74
2023/12/01 03:52:48;;;;;;;;;89.00;62.25;;;;;-143.90;100.00;75778.00;4898049;28;102385;-73
2023/12/01 03:55:15;;;;;;;;;80.00;57.75;;;;;-143.90;100.00;75755.28;4898616;28;108681;-73
2023/12/01 03:57:43;;;;;;;;;67.25;50.00;;;;;-143.90;100.00;75759.41;4897054;28;103035;-73
2023/12/01 04:00:16;;;;;;;;;63.75;46.75;;;;;-143.90;100.00;75742.88;4899926;28;101957;-73
2023/12/01 04:02:46;;;;;;;;;44.33;39.67;;;;;-143.90;100.00;75749.06;4899557;28;102339;-73
2023/12/01 04:05:18;;;;;;;;;57.75;40.75;;;;;-143.90;100.00;75753.19;4898754;28;104040;-73
2023/12/01 04:07:50;;;;;;;;;62.00;45.33;;;;;-143.90;100.00;75763.53;4896471;28;102208;-74
2023/12/01 04:10:19;;;;;;;;;36.67;32.00;;;;;-143.90;100.00;75755.28;4899201;28;102218;-71
2023/12/01 04:12:46;;;;;;;;;43.00;38.33;;;;;-143.90;100.00;75763.53;4902353;28;102151;-74
2023/12/01 04:15:20;;;;;;;;;62.25;45.00;;;;;-143.90;100.00;75755.28;4897124;28;104196;-73
2023/12/01 04:17:48;;;;;;;;;51.67;42.67;;;;;-143.90;100.00;75757.34;4896387;28;102339;-73
2023/12/01 04:20:27;;;;;;;;;45.67;37.00;;;;;-143.90;100.00;75749.06;4898528;28;101952;-73
2023/12/01 04:22:58;;;;;;;;;57.67;44.67;;;;;-143.90;100.00;75747.00;4899824;28;102300;-73
2023/12/01 04:25:25;;;;;;;;;53.25;45.00;;;;;-143.90;100.00;75751.13;4897743;28;104002;-74
2023/12/01 04:27:52;;;;;;;;;76.50;59.75;;;;;-143.90;100.00;75738.72;4897781;28;102254;-73
2023/12/01 04:30:20;;;;;;;;;66.75;51.75;;;;;-143.90;100.00;75738.72;4898203;28;102489;-72
2023/12/01 04:32:55;;;;;;;;;53.50;37.50;;;;;-143.90;100.00;75751.13;4901300;28;102394;-73
2023/12/01 04:35:32;;;;;;;;;62.33;45.33;;;;;-143.90;100.00;75738.72;4896876;28;108685;-73
2023/12/01 04:38:00;;;;;;;;;71.00;52.25;;;;;-143.90;100.00;75740.78;4897048;28;102912;-74
2023/12/01 04:40:27;;;;;;;;;66.50;48.50;;;;;-143.90;100.00;75755.28;4896687;28;101999;-73
2023/12/01 04:42:56;;;;;;;;;67.67;46.00;;;;;-143.90;100.00;75740.78;4899348;28;102140;-72
2023/12/01 04:45:25;;;;;;;;;81.25;61.25;;;;;-143.90;100.00;75755.28;4895965;28;108746;-72
2023/12/01 04:47:54;;;;;;;;;100.75;71.75;;;;;-143.90;100.00;75763.53;4897628;28;102548;-74
2023/12/01 04:50:26;;;;;;;;;96.50;66.00;;;;;-143.90;100.00;75761.47;4897727;28;101996;-73
2023/12/01 04:52:58;;;;;;;;;106.00;75.00;;;;;-143.90;100.00;75759.41;4897686;28;102416;-72
2023/12/01 04:55:26;;;;;;;;;104.25;74.25;;;;;-143.90;100.00;75767.69;4898943;28;104247;-73
2023/12/01 04:57:54;;;;;;;;;106.75;77.25;;;;;-143.90;100.00;75761.47;4899116;28;102296;-72
2023/12/01 05:00:25;;;;;;;;;103.00;75.75;;;;;-143.90;100.00;75753.19;4898918;28;101967;-73
2023/12/01 05:02:55;;;;;;;;;107.50;88.00;;;;;-143.90;100.00;75775.94;4897566;28;102348;-73
2023/12/01 05:05:23;;;;;;;;;111.00;84.75;;;;;-143.90;100.00;75771.81;4894748;28;104309;-73
2023/12/01 05:07:52;;;;;;;;;98.75;69.50;;;;;-143.90;100.00;75784.22;4891603;28;102298;-73
2023/12/01 05:10:20;;;;;;;;;100.25;71.25;;;;;-143.90;100.00;75782.16;4894945;28;102085;-72
2023/12/01 05:12:50;;;;;;;;;99.25;74.50;;;;;-143.90;100.00;75778.00;4899381;28;102425;-73
2023/12/01 05:15:18;;;;;;;;;104.75;76.25;;;;;-143.90;100.00;75775.94;4894367;28;108759;-73
2023/12/01 05:17:49;;;;;;;;;98.50;68.50;;;;;-143.90;100.00;75782.16;4898105;28;102645;-73
2023/12/01 05:20:17;;;;;;;;;109.25;84.50;;;;;-143.90;100.00;75788.34;4895537;28;102177;-72
2023/12/01 05:22:48;;;;;;;;;120.75;95.75;;;;;-143.90;100.00;75796.63;4893729;28;104459;-72
2023/12/01 05:25:16;;;;;;;;;103.25;74.50;;;;;-143.90;100.00;75804.91;4894231;28;108577;-73
2023/12/01 05:27:49;;;;;;;;;116.00;85.25;;;;;-143.90;100.00;75800.75;4894041;28;104170;-73
2023/12/01 05:30:18;;;;;;;;;101.50;75.25;;;;;-143.90;100.00;75782.16;4894538;28;104108;-73
2023/12/01 05:32:47;;;;;;;;;92.00;68.75;;;;;-143.90;100.00;75775.94;4897976;28;102440;-73
2023/12/01 05:35:15;;;;;;;;;80.00;58.25;;;;;-143.90;100.00;75778.00;4894825;28;108882;-73
2023/12/01 05:37:47;;;;;;;;;64.00;46.75;;;;;-143.90;100.00;75771.81;4896214;28;102368;-73
2023/12/01 05:40:24;;;;;;;;;37.00;24.25;;;;;-143.90;100.00;75765.59;4894053;28;102229;-73
2023/12/01 05:42:53;;;;;;;;;58.33;46.67;;;;;-143.90;100.00;75765.59;4896183;28;102467;-72
2023/12/01 05:45:22;;;;;;;;;59.67;43.33;;;;;-143.90;100.00;75765.59;4897343;28;103657;-72
2023/12/01 05:47:52;;;;;;;;;53.33;44.00;;;;;-143.90;100.00;75771.81;4895065;28;102495;-72
2023/12/01 05:50:28;;;;;;;;;67.00;50.00;;;;;-143.90;100.00;75796.63;4896294;28;103130;-72
2023/12/01 05:52:57;;;;;;;;;63.75;47.00;;;;;-143.90;100.00;75792.50;4897808;28;102118;-73
2023/12/01 05:55:29;;;;;;;;;71.25;49.50;;;;;-143.90;100.00;75784.22;4897380;28;104210;-73
2023/12/01 05:58:01;;;;;;;;;32.50;27.50;;;;;-143.90;100.00;75786.28;4896421;28;102619;-74
2023/12/01 06:00:29;;;;;;;;;59.25;49.75;;;;;-143.90;100.00;75771.81;4896536;28;102392;-73
2023/12/01 06:03:02;;;;;;;;;60.00;44.67;;;;;-143.90;100.00;75775.94;4894716;28;102424;-72
2023/12/01 06:05:29;;;;;;;;;52.67;43.00;;;;;-143.90;100.00;75767.69;4893844;28;104029;-73
2023/12/01 06:07:58;;;;;;;;;40.00;36.33;;;;;-143.90;100.00;75771.81;4894857;28;102734;-73
2023/12/01 06:10:27;;;;;;;;;40.67;35.33;;;;;-143.90;100.00;75769.75;4896962;28;102389;-73
2023/12/01 06:12:54;;;;;;;;;26.67;21.00;;;;;-143.90;100.00;75767.69;4897947;28;102160;-73
2023/12/01 06:15:21;;;;;;;;;29.00;26.00;;;;;-143.90;100.00;75767.69;4896550;28;103928;-73
2023/12/01 06:17:51;;;;;;;;;53.00;38.67;;;;;-143.90;100.00;75775.94;4899312;28;102316;-73
2023/12/01 06:20:20;;;;;;;;;51.33;43.33;;;;;-143.90;100.00;75771.81;4895852;28;102709;-73
2023/12/01 06:23:01;;;;;;;;;58.25;44.00;;;;;-143.90;100.00;75784.22;4898817;28;103125;-73
2023/12/01 06:25:31;;;;;;;;;75.25;57.00;;;;;-143.90;100.00;75769.75;4894751;28;107840;-73
2023/12/01 06:28:01;;;;;;;;;66.50;48.75;;;;;-143.90;100.00;75771.81;4897124;28;102661;-73
2023/12/01 06:30:33;;;;;;;;;81.00;57.75;;;;;-143.90;100.00;75767.69;4895712;28;102228;-73
2023/12/01 06:33:04;;;;;;;;;74.25;58.00;;;;;-143.90;100.00;75784.22;4894014;28;103408;-73
2023/12/01 06:35:31;;;;;;;;;68.75;51.25;;;;;-143.90;100.00;75800.75;4895368;28;104109;-74
2023/12/01 06:37:57;;;;;;;;;70.50;53.00;;;;;-143.90;100.00;75792.50;4895963;28;102279;-73
2023/12/01 06:40:24;;;;;;;;;63.75;50.50;;;;;-143.90;100.00;75775.94;4895273;28;102199;-72
2023/12/01 06:42:53;;;;;;;;;53.67;45.33;;;;;-143.90;100.00;75761.47;4895808;28;102931;-72
2023/12/01 06:45:28;;;;;;;;;48.67;42.00;;;;;-143.90;100.00;75755.28;4897058;28;104241;-72
2023/12/01 06:47:59;;;;;;;;;41.00;37.33;;;;;-143.90;100.00;75747.00;4896658;28;102599;-73
2023/12/01 06:50:28;;;;;;;;;33.00;29.33;;;;;-143.90;100.00;75742.88;4892642;28;102289;-75
2023/12/01 06:52:59;;;;;;;;;44.00;37.33;;;;;-143.90;100.00;75740.78;4897326;28;102374;-73
2023/12/01 06:55:26;;;;;;;;;41.00;35.67;;;;;-143.90;100.00;75742.88;4895864;28;104214;-73
2023/12/01 06:57:53;;;;;;;;;46.67;38.00;;;;;-143.90;100.00;75738.72;4897595;28;102451;-72
2023/12/01 07:03:03;;;;;;;;;46.33;38.67;;;;;-143.90;100.00;75734.59;4900298;28;102205;-73
2023/12/01 07:05:32;;;;;;;;;81.00;62.75;;;;;-143.90;100.00;75734.59;4899759;28;104093;-73
2023/12/01 07:08:00;;;;;;;;;76.00;57.50;;;;;-143.90;100.00;75738.72;4899907;28;102680;-73
2023/12/01 07:10:27;;;;;;;;;71.75;56.25;;;;;-143.90;100.00;75726.31;4897284;28;102351;-73
2023/12/01 07:12:54;;;;;;;;;66.00;49.50;;;;;-143.90;100.00;75711.84;4900475;28;102549;-73
2023/12/01 07:15:23;;;;;;;;;64.00;44.67;;;;;-143.90;100.00;75709.78;4899033;28;104003;-73
2023/12/01 07:17:55;;;;;;;;;106.25;75.75;;;;;-143.90;100.00;75734.59;4901506;28;102472;-71
2023/12/01 07:20:23;;;;;;;;;87.75;63.75;;;;;-143.90;100.00;75713.91;4900162;28;102432;-73
2023/12/01 07:22:51;;;;;;;;;92.50;68.25;;;;;-143.90;100.00;75718.06;4901140;28;101984;-72
2023/12/01 07:25:22;;;;;;;;;106.25;83.00;;;;;-143.90;100.00;75728.38;4902491;28;104361;-73
2023/12/01 07:27:55;;;;;;;;;116.75;82.75;;;;;-143.90;100.00;75747.00;4899224;28;102748;-73
2023/12/01 07:30:22;;;;;;;;;119.00;83.25;;;;;-143.90;100.00;75767.69;4899944;28;102381;-73
2023/12/01 07:32:49;;;;;;;;;103.50;75.25;;;;;-143.90;100.00;75755.28;4903191;28;106442;-72
2023/12/01 07:35:16;;;;;;;;;119.75;87.50;;;;;-143.90;100.00;75763.53;4898329;28;108878;-73
2023/12/01 07:37:44;;;;;;;;;109.00;78.50;;;;;-143.90;100.00;75757.34;4900154;28;102095;-73
2023/12/01 07:40:12;;;;;;;;;99.00;73.75;;;;;-143.90;100.00;75751.13;4914365;28;102140;-73
2023/12/01 07:42:40;;;;;;;;;132.75;95.75;;;;;-143.90;100.00;75759.41;4901239;28;102560;-73
2023/12/01 07:45:07;;;;;;;;;127.50;99.50;;;;;-143.90;100.00;75747.00;4900623;28;104040;-73
2023/12/01 07:47:36;;;;;;;;;138.75;108.00;;;;;-143.90;100.00;75738.72;4898256;28;102255;-74
2023/12/01 07:50:04;;;;;;;;;124.75;101.00;;;;;-143.90;100.00;75749.06;4904200;28;102201;-73
2023/12/01 07:52:32;;;;;;;;;117.25;93.00;;;;;-143.90;100.00;75726.31;4900727;28;102052;-74
2023/12/01 07:54:59;;;;;;;;;109.75;90.50;;;;;-143.90;100.00;75734.59;4899502;28;104172;-74
2023/12/01 07:57:26;;;;;;;;;123.00;93.50;;;;;-143.90;100.00;75755.28;4900620;28;102388;-73
2023/12/01 07:59:53;;;;;;;;;134.00;98.25;;;;;-143.90;100.00;75759.41;4909853;28;101973;-73
2023/12/01 08:02:19;;;;;;;;;113.25;89.00;;;;;-143.90;100.00;75759.41;4893574;28;102002;-73
2023/12/01 08:04:46;;;;;;;;;114.00;87.50;;;;;-143.90;100.00;75742.88;4901343;28;108693;-74
2023/12/01 08:07:13;;;;;;;;;106.50;80.00;;;;;-143.90;100.00;75718.06;4896744;28;102551;-74
2023/12/01 08:09:42;;;;;;;;;97.00;68.25;;;;;-143.90;100.00;75676.69;4898709;28;102462;-74
2023/12/01 08:12:09;;;;;;;;;83.25;63.00;;;;;-143.90;100.00;75631.22;4897939;28;102055;-74
2023/12/01 08:14:35;;;;;;;;;83.00;60.75;;;;;-143.90;100.00;75602.25;4899106;28;104220;-74
2023/12/01 08:17:02;;;;;;;;;69.75;54.50;;;;;-143.90;100.00;75579.53;4910925;28;102776;-74
2023/12/01 08:19:30;;;;;;;;;72.33;56.33;;;;;-143.90;100.00;75569.19;4899038;28;103259;-74
2023/12/01 08:21:56;;;;;;;;;111.50;87.25;;;;;-143.90;100.00;75562.97;4901424;28;101936;-74
2023/12/01 08:24:23;;;;;;;;;106.50;84.25;;;;;-143.90;100.00;75562.97;4897592;28;104114;-74
2023/12/01 08:27:00;;;;;;;;;118.25;89.75;;;;;-143.90;100.00;75550.56;4899791;28;102612;-73
2023/12/01 08:29:26;;;;;;;;;103.25;73.25;;;;;-143.90;100.00;75540.22;4899240;28;102234;-74
2023/12/01 08:31:54;;;;;;;;;101.25;75.50;;;;;-143.90;100.00;75534.03;4899883;28;102237;-73
2023/12/01 08:34:21;;;;;;;;;98.00;70.75;;;;;-143.90;100.00;75536.09;4898789;28;104157;-73
2023/12/01 08:36:49;;;;;;;;;92.00;62.00;;;;;-143.90;100.00;75509.22;4900137;28;102439;-73
2023/12/01 08:39:16;;;;;;;;;82.50;60.75;;;;;-143.90;100.00;75515.41;4900525;28;102335;-73
2023/12/01 08:41:43;;;;;;;;;88.25;66.00;;;;;-143.90;100.00;75509.22;4900672;28;102074;-73
2023/12/01 08:44:09;;;;;;;;;91.50;67.75;;;;;-143.90;100.00;75527.81;4896676;28;104143;-73
2023/12/01 08:46:36;;;;;;;;;84.00;62.00;;;;;-143.90;100.00;75517.50;4897573;28;102727;-74
2023/12/01 08:49:02;;;;;;;;;80.00;59.50;;;;;-143.90;100.00;75486.47;4898503;28;102660;-74
2023/12/01 08:51:29;;;;;;;;;70.00;54.25;;;;;-143.90;100.00;75461.66;4899006;28;102020;-73
2023/12/01 08:53:56;;;;;;;;;76.00;58.67;;;;;-143.90;100.00;75443.06;4898804;28;104024;-74
2023/12/01 08:56:23;;;;;;;;;65.75;50.75;;;;;-143.90;100.00;75441.00;4898891;28;102451;-73
2023/12/01 08:58:50;;;;;;;;;77.00;54.00;;;;;-143.90;100.00;75445.13;4899031;28;102118;-73
2023/12/01 09:01:17;;;;;;;;;71.67;53.00;;;;;-143.90;100.00;75436.84;4901748;28;102043;-73
2023/12/01 09:03:44;;;;;;;;;80.33;56.33;;;;;-143.90;100.00;75436.84;4899242;28;108769;-73
2023/12/01 09:06:11;;;;;;;;;82.33;59.33;;;;;-143.90;100.00;75418.25;4897739;28;102607;-73
2023/12/01 09:08:37;;;;;;;;;69.33;54.00;;;;;-143.90;100.00;75383.09;4898968;28;102073;-73
2023/12/01 09:11:04;;;;;;;;;56.33;43.00;;;;;-143.90;99.62;75360.34;4900108;28;103066;-74
2023/12/01 09:13:32;;;;;;;;;60.00;44.00;;;;;-143.90;97.25;75362.44;4900236;28;104113;-73
2023/12/01 09:15:59;;;;;;;;;67.33;50.67;;;;;-143.90;96.71;75337.63;4898744;28;102528;-74
2023/12/01 09:18:26;;;;;;;;;78.00;61.25;;;;;-143.90;96.24;75312.81;4899109;28;102038;-74
2023/12/01 09:20:54;;;;;;;;;86.75;59.50;;;;;-143.90;95.27;75306.59;4899117;28;102330;-73
2023/12/01 09:23:21;;;;;;;;;93.50;69.00;;;;;-143.90;93.58;75341.75;4897991;28;103994;-72
2023/12/01 09:25:48;;;;;;;;;76.67;58.33;;;;;-143.90;94.18;75329.34;4896206;28;102709;-74
2023/12/01 09:28:15;;;;;;;;;80.67;58.33;;;;;-143.90;96.06;75327.28;4900401;28;102699;-74
2023/12/01 09:30:41;;;;;;;;;77.00;58.00;;;;;-143.90;96.66;75312.81;4895624;28;102025;-73
2023/12/01 09:33:08;;;;;;;;;66.33;52.00;;;;;-143.90;95.50;75302.47;4895891;28;104092;-74
2023/12/01 09:35:35;;;;;;;;;76.00;56.33;;;;;-143.90;92.82;75304.53;4898662;28;104495;-74
2023/12/01 09:38:21;;;;;;;;;71.33;54.67;;;;;-143.90;95.21;75312.81;4894918;28;101903;-73
2023/12/01 09:40:48;;;;;;;;;70.33;53.67;;;;;-143.90;95.45;75296.25;4901284;28;102159;-74
2023/12/01 09:43:18;;;;;;;;;59.00;44.67;;;;;-143.90;93.66;75304.53;4894259;28;108920;-74
2023/12/01 09:45:45;;;;;;;;;75.33;54.00;;;;;-143.90;93.22;75312.81;4897458;28;102295;-74
2023/12/01 09:48:13;;;;;;;;;70.33;50.00;;;;;-143.90;94.35;75327.28;4899135;28;102443;-74
2023/12/01 09:50:41;;;;;;;;;61.00;46.00;;;;;-143.90;96.31;75304.53;4898351;28;102389;-74
2023/12/01 09:53:07;;;;;;;;;53.00;44.33;;;;;-143.90;94.51;75296.25;4897819;28;104018;-74
2023/12/01 09:55:35;;;;;;;;;59.33;46.00;;;;;-143.90;92.86;75312.81;4899480;28;102245;-74
2023/12/01 09:58:02;;;;;;;;;69.00;49.67;;;;;-143.90;93.06;75321.06;4896317;28;102009;-74
2023/12/01 10:00:28;;;;;;;;;59.67;45.33;;;;;-143.90;91.47;75304.53;4897044;28;103267;-74
2023/12/01 10:02:55;;;;;;;;;60.67;46.00;;;;;-143.90;94.76;75298.34;4897564;28;103968;-74
2023/12/01 10:05:22;;;;;;;;;61.67;42.33;;;;;-143.90;93.54;75288.00;4898328;28;102169;-74
2023/12/01 10:07:50;;;;;;;;;51.67;40.67;;;;;-143.90;93.69;75256.97;4896008;28;102122;-72
2023/12/01 10:10:22;;;;;;;;;48.00;40.00;;;;;-143.90;91.82;75254.91;4901171;28;102396;-74
2023/12/01 10:13:07;;;;;;;;;75.33;57.00;;;;;-143.90;89.25;75240.44;4894556;28;104192;-74
2023/12/01 10:15:39;;;;;;;;;69.33;50.33;;;;;-143.90;90.03;75236.31;4892303;28;103012;-74
2023/12/01 10:18:12;;;;;;;;;62.33;47.00;;;;;-143.90;90.39;75246.66;4896551;28;102082;-74
2023/12/01 10:21:04;;;;;;;;;57.00;45.33;;;;;-143.90;91.33;75248.72;4898459;28;102261;-74
2023/12/01 10:23:33;;;;;;;;;72.00;53.33;;;;;-143.90;90.67;75254.91;4895459;28;108812;-74
2023/12/01 10:26:04;;;;;;;;;71.67;53.67;;;;;-143.90;89.51;75277.66;4896766;28;102320;-74
2023/12/01 10:28:39;;;;;;;;;63.33;47.00;;;;;-143.90;90.08;75259.06;4897915;28;102172;-74
2023/12/01 10:31:07;;;;;;;;;62.33;48.00;;;;;-143.90;91.76;75281.78;4895406;28;103110;-74
2023/12/01 10:33:35;;;;;;;;;63.33;49.00;;;;;-143.90;91.91;75267.31;4896305;28;104296;-74
2023/12/01 10:36:03;;;;;;;;;61.33;47.33;;;;;-143.90;92.38;75283.84;4895513;28;102527;-74
2023/12/01 10:38:33;;;;;;;;;40.67;39.00;;;;;-143.90;94.32;75304.53;4900535;28;102421;-74
2023/12/01 10:41:03;;;;;;;;;66.33;51.00;;;;;-143.90;92.08;75288.00;4899569;28;103009;-74
2023/12/01 10:43:31;;;;;;;;;64.33;49.33;;;;;-143.90;91.34;75271.47;4897594;28;103878;-74
2023/12/01 10:46:03;;;;;;;;;48.00;34.00;;;;;-143.90;92.88;75242.50;4898765;28;102299;-75
2023/12/01 10:48:32;;;;;;;;;69.33;51.00;;;;;-143.90;90.69;75228.03;4898256;28;103012;-74
2023/12/01 10:51:03;;;;;;;;;66.67;47.00;;;;;-143.90;91.53;75234.25;4899223;28;101999;-74
2023/12/01 10:53:30;;;;;;;;;29.00;24.33;;;;;-143.90;91.15;75211.50;4898816;28;104187;-74
2023/12/01 10:56:01;;;;;;;;;44.00;35.33;;;;;-143.90;90.56;75213.56;4896553;28;102534;-74